sensor_id;sensor_type;location;lat;lon;timestamp;P1;durP1;ratioP1;P2;durP2;ratioP2
6197;SDS011;3132;42.622;23.328;2022-10-16T00:01:12;12.20;;;11.40;;
6197;SDS011;3132;42.622;23.328;2022-10-16T00:03:39;12.80;;;11.73;;
6197;SDS011;3132;42.622;23.328;2022-10-16T00:06:06;12.30;;;11.40;;
6197;SDS011;3132;42.622;23.328;2022-10-16T00:08:32;12.80;;;11.90;;
6197;SDS011;3132;42.622;23.328;2022-10-16T00:10:59;12.13;;;11.23;;
6197;SDS011;3132;42.622;23.328;2022-10-16T00:13:26;12.60;;;11.50;;
6197;SDS011;3132;42.622;23.328;2022-10-16T00:15:54;13.30;;;12.17;;
6197;SDS011;3132;42.622;23.328;2022-10-16T00:18:20;12.43;;;11.50;;
6197;SDS011;3132;42.622;23.328;2022-10-16T00:20:46;12.57;;;11.53;;
6197;SDS011;3132;42.622;23.328;2022-10-16T00:23:11;12.90;;;12.03;;
6197;SDS011;3132;42.622;23.328;2022-10-16T00:25:37;12.33;;;11.30;;
6197;SDS011;3132;42.622;23.328;2022-10-16T00:28:02;22.20;;;20.80;;
6197;SDS011;3132;42.622;23.328;2022-10-16T00:30:27;13.53;;;12.53;;
6197;SDS011;3132;42.622;23.328;2022-10-16T00:32:53;13.97;;;12.97;;
6197;SDS011;3132;42.622;23.328;2022-10-16T00:35:19;14.10;;;12.90;;
6197;SDS011;3132;42.622;23.328;2022-10-16T00:37:45;12.87;;;12.07;;
6197;SDS011;3132;42.622;23.328;2022-10-16T00:40:10;13.63;;;12.67;;
6197;SDS011;3132;42.622;23.328;2022-10-16T00:42:36;12.33;;;11.20;;
6197;SDS011;3132;42.622;23.328;2022-10-16T00:45:02;12.50;;;11.60;;
6197;SDS011;3132;42.622;23.328;2022-10-16T00:47:29;10.43;;;9.83;;
6197;SDS011;3132;42.622;23.328;2022-10-16T00:50:04;12.60;;;11.80;;
6197;SDS011;3132;42.622;23.328;2022-10-16T00:52:33;11.67;;;10.73;;
6197;SDS011;3132;42.622;23.328;2022-10-16T00:54:59;12.97;;;11.87;;
6197;SDS011;3132;42.622;23.328;2022-10-16T00:57:26;13.03;;;12.00;;
6197;SDS011;3132;42.622;23.328;2022-10-16T00:59:51;12.60;;;11.60;;
6197;SDS011;3132;42.622;23.328;2022-10-16T01:02:18;11.97;;;11.20;;
6197;SDS011;3132;42.622;23.328;2022-10-16T01:04:44;10.77;;;9.97;;
6197;SDS011;3132;42.622;23.328;2022-10-16T01:17:47;12.07;;;11.40;;
6197;SDS011;3132;42.622;23.328;2022-10-16T01:20:20;11.63;;;11.00;;
6197;SDS011;3132;42.622;23.328;2022-10-16T01:28:20;12.13;;;11.47;;
6197;SDS011;3132;42.622;23.328;2022-10-16T01:30:50;11.60;;;10.80;;
6197;SDS011;3132;42.622;23.328;2022-10-16T01:33:22;12.10;;;11.30;;
6197;SDS011;3132;42.622;23.328;2022-10-16T01:35:56;11.80;;;10.73;;
6197;SDS011;3132;42.622;23.328;2022-10-16T01:38:33;10.93;;;10.23;;
6197;SDS011;3132;42.622;23.328;2022-10-16T01:41:01;12.60;;;11.70;;
6197;SDS011;3132;42.622;23.328;2022-10-16T01:43:35;12.00;;;11.03;;
6197;SDS011;3132;42.622;23.328;2022-10-16T01:46:05;11.87;;;11.03;;
6197;SDS011;3132;42.622;23.328;2022-10-16T01:48:33;11.63;;;10.87;;
6197;SDS011;3132;42.622;23.328;2022-10-16T01:51:05;11.47;;;10.73;;
6197;SDS011;3132;42.622;23.328;2022-10-16T01:53:33;11.63;;;10.93;;
6197;SDS011;3132;42.622;23.328;2022-10-16T01:55:59;11.23;;;10.50;;
6197;SDS011;3132;42.622;23.328;2022-10-16T01:58:28;11.03;;;10.13;;
6197;SDS011;3132;42.622;23.328;2022-10-16T02:00:59;12.17;;;11.17;;
6197;SDS011;3132;42.622;23.328;2022-10-16T02:03:26;11.27;;;10.47;;
6197;SDS011;3132;42.622;23.328;2022-10-16T02:08:22;13.43;;;12.23;;
6197;SDS011;3132;42.622;23.328;2022-10-16T02:10:51;13.93;;;12.63;;
6197;SDS011;3132;42.622;23.328;2022-10-16T02:13:26;13.10;;;11.67;;
6197;SDS011;3132;42.622;23.328;2022-10-16T02:15:53;13.53;;;12.43;;
6197;SDS011;3132;42.622;23.328;2022-10-16T02:18:18;14.23;;;12.13;;
6197;SDS011;3132;42.622;23.328;2022-10-16T02:21:06;12.43;;;11.33;;
6197;SDS011;3132;42.622;23.328;2022-10-16T02:27:08;11.73;;;10.83;;
6197;SDS011;3132;42.622;23.328;2022-10-16T02:29:22;12.67;;;11.77;;
6197;SDS011;3132;42.622;23.328;2022-10-16T02:31:50;12.37;;;11.47;;
6197;SDS011;3132;42.622;23.328;2022-10-16T02:34:22;12.30;;;11.60;;
6197;SDS011;3132;42.622;23.328;2022-10-16T02:36:50;12.77;;;11.77;;
6197;SDS011;3132;42.622;23.328;2022-10-16T02:39:17;12.27;;;11.47;;
6197;SDS011;3132;42.622;23.328;2022-10-16T02:41:44;12.30;;;11.40;;
6197;SDS011;3132;42.622;23.328;2022-10-16T02:44:10;12.30;;;11.40;;
6197;SDS011;3132;42.622;23.328;2022-10-16T02:46:35;11.87;;;11.07;;
6197;SDS011;3132;42.622;23.328;2022-10-16T02:49:01;12.70;;;11.53;;
6197;SDS011;3132;42.622;23.328;2022-10-16T02:51:26;12.17;;;11.30;;
6197;SDS011;3132;42.622;23.328;2022-10-16T02:53:51;13.37;;;12.27;;
6197;SDS011;3132;42.622;23.328;2022-10-16T02:56:17;13.40;;;12.30;;
6197;SDS011;3132;42.622;23.328;2022-10-16T02:58:42;13.67;;;12.57;;
6197;SDS011;3132;42.622;23.328;2022-10-16T03:01:07;13.93;;;12.80;;
6197;SDS011;3132;42.622;23.328;2022-10-16T03:03:33;13.13;;;12.03;;
6197;SDS011;3132;42.622;23.328;2022-10-16T03:05:58;12.83;;;11.73;;
6197;SDS011;3132;42.622;23.328;2022-10-16T03:08:24;13.37;;;12.27;;
6197;SDS011;3132;42.622;23.328;2022-10-16T03:10:50;14.07;;;12.97;;
6197;SDS011;3132;42.622;23.328;2022-10-16T03:13:16;15.30;;;13.90;;
6197;SDS011;3132;42.622;23.328;2022-10-16T03:15:41;14.87;;;13.67;;
6197;SDS011;3132;42.622;23.328;2022-10-16T03:18:07;15.87;;;14.43;;
6197;SDS011;3132;42.622;23.328;2022-10-16T03:20:32;15.57;;;14.23;;
6197;SDS011;3132;42.622;23.328;2022-10-16T03:22:58;15.90;;;14.33;;
6197;SDS011;3132;42.622;23.328;2022-10-16T03:25:23;17.20;;;15.57;;
6197;SDS011;3132;42.622;23.328;2022-10-16T03:27:48;16.23;;;14.83;;
6197;SDS011;3132;42.622;23.328;2022-10-16T03:30:14;16.17;;;14.67;;
6197;SDS011;3132;42.622;23.328;2022-10-16T03:32:40;16.33;;;14.27;;
6197;SDS011;3132;42.622;23.328;2022-10-16T03:35:05;18.07;;;15.30;;
6197;SDS011;3132;42.622;23.328;2022-10-16T03:37:31;16.00;;;14.33;;
6197;SDS011;3132;42.622;23.328;2022-10-16T03:39:56;20.63;;;16.43;;
6197;SDS011;3132;42.622;23.328;2022-10-16T03:42:22;18.23;;;16.43;;
6197;SDS011;3132;42.622;23.328;2022-10-16T03:44:47;21.37;;;17.10;;
6197;SDS011;3132;42.622;23.328;2022-10-16T03:47:12;18.10;;;16.40;;
6197;SDS011;3132;42.622;23.328;2022-10-16T03:49:38;17.83;;;16.23;;
6197;SDS011;3132;42.622;23.328;2022-10-16T03:52:03;19.77;;;17.43;;
6197;SDS011;3132;42.622;23.328;2022-10-16T03:54:29;19.10;;;17.20;;
6197;SDS011;3132;42.622;23.328;2022-10-16T03:56:54;18.83;;;17.03;;
6197;SDS011;3132;42.622;23.328;2022-10-16T03:59:19;18.70;;;16.90;;
6197;SDS011;3132;42.622;23.328;2022-10-16T04:01:45;18.17;;;16.37;;
6197;SDS011;3132;42.622;23.328;2022-10-16T04:04:10;19.47;;;16.73;;
6197;SDS011;3132;42.622;23.328;2022-10-16T04:06:35;20.27;;;17.37;;
6197;SDS011;3132;42.622;23.328;2022-10-16T04:09:01;23.87;;;17.50;;
6197;SDS011;3132;42.622;23.328;2022-10-16T04:11:27;24.80;;;17.57;;
6197;SDS011;3132;42.622;23.328;2022-10-16T04:13:52;18.03;;;16.23;;
6197;SDS011;3132;42.622;23.328;2022-10-16T04:16:17;21.23;;;16.90;;
6197;SDS011;3132;42.622;23.328;2022-10-16T04:18:43;18.73;;;16.73;;
6197;SDS011;3132;42.622;23.328;2022-10-16T04:21:08;18.33;;;16.33;;
6197;SDS011;3132;42.622;23.328;2022-10-16T04:23:33;16.97;;;14.47;;
6197;SDS011;3132;42.622;23.328;2022-10-16T04:25:59;15.47;;;13.83;;
6197;SDS011;3132;42.622;23.328;2022-10-16T04:28:25;16.17;;;14.67;;
6197;SDS011;3132;42.622;23.328;2022-10-16T04:30:51;15.27;;;13.73;;
6197;SDS011;3132;42.622;23.328;2022-10-16T04:33:17;16.27;;;14.50;;
6197;SDS011;3132;42.622;23.328;2022-10-16T04:35:42;14.73;;;13.23;;
6197;SDS011;3132;42.622;23.328;2022-10-16T04:38:07;14.07;;;12.77;;
6197;SDS011;3132;42.622;23.328;2022-10-16T04:40:33;14.23;;;12.90;;
6197;SDS011;3132;42.622;23.328;2022-10-16T04:43:01;15.00;;;13.53;;
6197;SDS011;3132;42.622;23.328;2022-10-16T04:45:27;15.27;;;14.07;;
6197;SDS011;3132;42.622;23.328;2022-10-16T04:47:53;15.00;;;13.63;;
6197;SDS011;3132;42.622;23.328;2022-10-16T04:50:22;14.77;;;13.20;;
6197;SDS011;3132;42.622;23.328;2022-10-16T04:52:47;14.80;;;13.60;;
6197;SDS011;3132;42.622;23.328;2022-10-16T04:55:12;16.37;;;15.03;;
6197;SDS011;3132;42.622;23.328;2022-10-16T04:57:38;13.40;;;11.90;;
6197;SDS011;3132;42.622;23.328;2022-10-16T05:00:03;14.83;;;13.73;;
6197;SDS011;3132;42.622;23.328;2022-10-16T05:02:29;14.27;;;13.03;;
6197;SDS011;3132;42.622;23.328;2022-10-16T05:04:54;15.47;;;14.27;;
6197;SDS011;3132;42.622;23.328;2022-10-16T05:07:20;15.87;;;14.13;;
6197;SDS011;3132;42.622;23.328;2022-10-16T05:09:45;14.53;;;13.23;;
6197;SDS011;3132;42.622;23.328;2022-10-16T05:12:10;14.87;;;13.57;;
6197;SDS011;3132;42.622;23.328;2022-10-16T05:14:36;15.83;;;14.43;;
6197;SDS011;3132;42.622;23.328;2022-10-16T05:17:01;14.00;;;12.90;;
6197;SDS011;3132;42.622;23.328;2022-10-16T05:19:26;14.60;;;13.40;;
6197;SDS011;3132;42.622;23.328;2022-10-16T05:21:52;14.80;;;13.60;;
6197;SDS011;3132;42.622;23.328;2022-10-16T05:24:17;15.27;;;13.97;;
6197;SDS011;3132;42.622;23.328;2022-10-16T05:26:42;13.97;;;12.60;;
6197;SDS011;3132;42.622;23.328;2022-10-16T05:29:08;15.40;;;14.03;;
6197;SDS011;3132;42.622;23.328;2022-10-16T05:31:34;13.90;;;12.50;;
6197;SDS011;3132;42.622;23.328;2022-10-16T05:33:59;14.50;;;13.20;;
6197;SDS011;3132;42.622;23.328;2022-10-16T05:36:25;14.67;;;13.27;;
6197;SDS011;3132;42.622;23.328;2022-10-16T05:38:51;16.70;;;15.20;;
6197;SDS011;3132;42.622;23.328;2022-10-16T05:41:16;16.03;;;14.33;;
6197;SDS011;3132;42.622;23.328;2022-10-16T05:43:46;16.97;;;15.40;;
6197;SDS011;3132;42.622;23.328;2022-10-16T05:46:12;19.17;;;17.17;;
6197;SDS011;3132;42.622;23.328;2022-10-16T05:48:37;21.97;;;17.73;;
6197;SDS011;3132;42.622;23.328;2022-10-16T05:51:04;18.37;;;16.60;;
6197;SDS011;3132;42.622;23.328;2022-10-16T05:53:32;19.50;;;17.40;;
6197;SDS011;3132;42.622;23.328;2022-10-16T05:56:00;19.87;;;17.83;;
6197;SDS011;3132;42.622;23.328;2022-10-16T05:58:27;20.00;;;18.03;;
6197;SDS011;3132;42.622;23.328;2022-10-16T06:00:58;22.80;;;17.90;;
6197;SDS011;3132;42.622;23.328;2022-10-16T06:03:25;19.70;;;15.90;;
6197;SDS011;3132;42.622;23.328;2022-10-16T06:05:51;19.13;;;17.23;;
6197;SDS011;3132;42.622;23.328;2022-10-16T06:08:17;23.03;;;16.93;;
6197;SDS011;3132;42.622;23.328;2022-10-16T06:10:43;23.07;;;17.83;;
6197;SDS011;3132;42.622;23.328;2022-10-16T06:13:10;21.17;;;18.97;;
6197;SDS011;3132;42.622;23.328;2022-10-16T06:15:36;19.80;;;17.67;;
6197;SDS011;3132;42.622;23.328;2022-10-16T06:18:03;21.73;;;18.70;;
6197;SDS011;3132;42.622;23.328;2022-10-16T06:20:29;22.43;;;18.23;;
6197;SDS011;3132;42.622;23.328;2022-10-16T06:22:54;18.37;;;16.43;;
6197;SDS011;3132;42.622;23.328;2022-10-16T06:25:20;19.23;;;17.30;;
6197;SDS011;3132;42.622;23.328;2022-10-16T06:27:45;18.73;;;16.83;;
6197;SDS011;3132;42.622;23.328;2022-10-16T06:30:10;17.97;;;16.20;;
6197;SDS011;3132;42.622;23.328;2022-10-16T06:32:36;19.23;;;17.23;;
6197;SDS011;3132;42.622;23.328;2022-10-16T06:35:01;19.93;;;17.90;;
6197;SDS011;3132;42.622;23.328;2022-10-16T06:37:27;21.40;;;17.80;;
6197;SDS011;3132;42.622;23.328;2022-10-16T06:39:52;18.43;;;16.17;;
6197;SDS011;3132;42.622;23.328;2022-10-16T06:42:18;19.73;;;17.70;;
6197;SDS011;3132;42.622;23.328;2022-10-16T06:44:43;19.17;;;16.40;;
6197;SDS011;3132;42.622;23.328;2022-10-16T06:47:09;21.57;;;17.57;;
6197;SDS011;3132;42.622;23.328;2022-10-16T06:49:35;17.93;;;16.23;;
6197;SDS011;3132;42.622;23.328;2022-10-16T06:52:00;18.37;;;16.67;;
6197;SDS011;3132;42.622;23.328;2022-10-16T06:54:26;22.40;;;17.97;;
6197;SDS011;3132;42.622;23.328;2022-10-16T06:56:52;19.50;;;17.13;;
6197;SDS011;3132;42.622;23.328;2022-10-16T06:59:19;19.87;;;17.93;;
6197;SDS011;3132;42.622;23.328;2022-10-16T07:01:47;18.40;;;16.27;;
6197;SDS011;3132;42.622;23.328;2022-10-16T07:04:13;18.90;;;16.70;;
6197;SDS011;3132;42.622;23.328;2022-10-16T07:06:38;16.40;;;14.73;;
6197;SDS011;3132;42.622;23.328;2022-10-16T07:09:05;15.67;;;14.13;;
6197;SDS011;3132;42.622;23.328;2022-10-16T07:11:34;15.80;;;14.07;;
6197;SDS011;3132;42.622;23.328;2022-10-16T07:14:01;16.27;;;14.87;;
6197;SDS011;3132;42.622;23.328;2022-10-16T07:16:27;15.17;;;13.87;;
6197;SDS011;3132;42.622;23.328;2022-10-16T07:18:57;15.13;;;13.93;;
6197;SDS011;3132;42.622;23.328;2022-10-16T07:21:25;14.07;;;12.73;;
6197;SDS011;3132;42.622;23.328;2022-10-16T07:23:54;13.03;;;12.03;;
6197;SDS011;3132;42.622;23.328;2022-10-16T07:26:21;14.60;;;13.43;;
6197;SDS011;3132;42.622;23.328;2022-10-16T07:28:48;14.87;;;13.60;;
6197;SDS011;3132;42.622;23.328;2022-10-16T07:31:14;17.03;;;13.17;;
6197;SDS011;3132;42.622;23.328;2022-10-16T07:33:41;14.50;;;13.30;;
6197;SDS011;3132;42.622;23.328;2022-10-16T07:36:09;14.20;;;13.20;;
6197;SDS011;3132;42.622;23.328;2022-10-16T07:38:35;13.23;;;11.93;;
6197;SDS011;3132;42.622;23.328;2022-10-16T07:41:02;14.50;;;13.30;;
6197;SDS011;3132;42.622;23.328;2022-10-16T07:43:29;13.37;;;12.37;;
6197;SDS011;3132;42.622;23.328;2022-10-16T07:45:55;14.00;;;12.67;;
6197;SDS011;3132;42.622;23.328;2022-10-16T07:48:21;14.27;;;13.17;;
6197;SDS011;3132;42.622;23.328;2022-10-16T07:50:48;14.00;;;12.57;;
6197;SDS011;3132;42.622;23.328;2022-10-16T07:53:13;13.03;;;12.13;;
6197;SDS011;3132;42.622;23.328;2022-10-16T07:55:39;13.93;;;12.60;;
6197;SDS011;3132;42.622;23.328;2022-10-16T07:58:05;13.03;;;11.90;;
6197;SDS011;3132;42.622;23.328;2022-10-16T08:00:31;14.23;;;13.07;;
6197;SDS011;3132;42.622;23.328;2022-10-16T08:02:57;13.07;;;11.97;;
6197;SDS011;3132;42.622;23.328;2022-10-16T08:05:26;14.37;;;13.23;;
6197;SDS011;3132;42.622;23.328;2022-10-16T08:07:53;13.93;;;12.50;;
6197;SDS011;3132;42.622;23.328;2022-10-16T08:10:19;13.70;;;12.50;;
6197;SDS011;3132;42.622;23.328;2022-10-16T08:12:46;14.80;;;13.70;;
6197;SDS011;3132;42.622;23.328;2022-10-16T08:15:12;12.70;;;11.57;;
6197;SDS011;3132;42.622;23.328;2022-10-16T08:17:37;14.27;;;13.03;;
6197;SDS011;3132;42.622;23.328;2022-10-16T08:20:03;14.87;;;13.47;;
6197;SDS011;3132;42.622;23.328;2022-10-16T08:22:29;14.40;;;13.00;;
6197;SDS011;3132;42.622;23.328;2022-10-16T08:24:54;14.47;;;13.27;;
6197;SDS011;3132;42.622;23.328;2022-10-16T08:27:20;14.33;;;13.13;;
6197;SDS011;3132;42.622;23.328;2022-10-16T08:29:45;14.83;;;13.63;;
6197;SDS011;3132;42.622;23.328;2022-10-16T08:32:11;13.93;;;12.73;;
6197;SDS011;3132;42.622;23.328;2022-10-16T08:34:36;16.30;;;13.77;;
6197;SDS011;3132;42.622;23.328;2022-10-16T08:37:02;15.23;;;13.87;;
6197;SDS011;3132;42.622;23.328;2022-10-16T08:39:27;14.33;;;13.30;;
6197;SDS011;3132;42.622;23.328;2022-10-16T08:42:03;14.77;;;13.47;;
6197;SDS011;3132;42.622;23.328;2022-10-16T08:47:26;14.17;;;13.10;;
6197;SDS011;3132;42.622;23.328;2022-10-16T08:50:09;13.27;;;12.27;;
6197;SDS011;3132;42.622;23.328;2022-10-16T08:52:39;11.93;;;11.10;;
6197;SDS011;3132;42.622;23.328;2022-10-16T08:55:08;10.80;;;10.13;;
6197;SDS011;3132;42.622;23.328;2022-10-16T08:58:00;12.43;;;11.53;;
6197;SDS011;3132;42.622;23.328;2022-10-16T09:00:26;12.43;;;11.40;;
6197;SDS011;3132;42.622;23.328;2022-10-16T09:03:01;12.17;;;10.97;;
6197;SDS011;3132;42.622;23.328;2022-10-16T09:05:47;11.23;;;10.40;;
6197;SDS011;3132;42.622;23.328;2022-10-16T09:08:30;13.33;;;12.23;;
6197;SDS011;3132;42.622;23.328;2022-10-16T09:11:32;11.97;;;11.27;;
6197;SDS011;3132;42.622;23.328;2022-10-16T09:25:29;11.30;;;10.50;;
6197;SDS011;3132;42.622;23.328;2022-10-16T09:27:56;10.97;;;10.23;;
6197;SDS011;3132;42.622;23.328;2022-10-16T09:30:21;11.60;;;10.80;;
6197;SDS011;3132;42.622;23.328;2022-10-16T09:32:49;11.33;;;10.70;;
6197;SDS011;3132;42.622;23.328;2022-10-16T09:35:18;11.13;;;10.43;;
6197;SDS011;3132;42.622;23.328;2022-10-16T09:37:46;10.73;;;9.93;;
6197;SDS011;3132;42.622;23.328;2022-10-16T09:40:24;10.03;;;9.40;;
6197;SDS011;3132;42.622;23.328;2022-10-16T09:42:49;11.33;;;10.33;;
6197;SDS011;3132;42.622;23.328;2022-10-16T09:45:22;10.60;;;10.00;;
6197;SDS011;3132;42.622;23.328;2022-10-16T09:47:48;11.30;;;10.03;;
6197;SDS011;3132;42.622;23.328;2022-10-16T09:50:24;11.40;;;10.60;;
6197;SDS011;3132;42.622;23.328;2022-10-16T09:53:05;11.13;;;10.43;;
6197;SDS011;3132;42.622;23.328;2022-10-16T09:55:47;11.23;;;10.53;;
6197;SDS011;3132;42.622;23.328;2022-10-16T09:58:16;11.73;;;10.83;;
6197;SDS011;3132;42.622;23.328;2022-10-16T10:00:42;10.90;;;10.20;;
6197;SDS011;3132;42.622;23.328;2022-10-16T10:06:06;11.30;;;10.47;;
6197;SDS011;3132;42.622;23.328;2022-10-16T10:08:51;10.87;;;10.17;;
6197;SDS011;3132;42.622;23.328;2022-10-16T10:11:38;11.27;;;10.57;;
6197;SDS011;3132;42.622;23.328;2022-10-16T10:16:44;11.60;;;10.70;;
6197;SDS011;3132;42.622;23.328;2022-10-16T10:19:13;10.57;;;9.77;;
6197;SDS011;3132;42.622;23.328;2022-10-16T10:21:40;11.13;;;10.37;;
6197;SDS011;3132;42.622;23.328;2022-10-16T10:24:09;11.60;;;10.60;;
6197;SDS011;3132;42.622;23.328;2022-10-16T10:26:40;10.33;;;9.67;;
6197;SDS011;3132;42.622;23.328;2022-10-16T10:29:17;11.07;;;10.30;;
6197;SDS011;3132;42.622;23.328;2022-10-16T10:32:06;11.23;;;10.43;;
6197;SDS011;3132;42.622;23.328;2022-10-16T10:39:58;11.40;;;10.60;;
6197;SDS011;3132;42.622;23.328;2022-10-16T10:42:36;9.70;;;9.03;;
6197;SDS011;3132;42.622;23.328;2022-10-16T10:47:47;10.20;;;9.50;;
6197;SDS011;3132;42.622;23.328;2022-10-16T10:50:29;10.53;;;9.83;;
6197;SDS011;3132;42.622;23.328;2022-10-16T11:06:59;11.13;;;10.33;;
6197;SDS011;3132;42.622;23.328;2022-10-16T11:09:30;9.77;;;8.97;;
6197;SDS011;3132;42.622;23.328;2022-10-16T11:11:59;10.13;;;9.53;;
6197;SDS011;3132;42.622;23.328;2022-10-16T11:14:31;9.77;;;9.17;;
6197;SDS011;3132;42.622;23.328;2022-10-16T11:17:23;9.53;;;8.93;;
6197;SDS011;3132;42.622;23.328;2022-10-16T11:22:42;10.07;;;9.47;;
6197;SDS011;3132;42.622;23.328;2022-10-16T11:25:14;10.20;;;9.53;;
6197;SDS011;3132;42.622;23.328;2022-10-16T11:30:54;9.57;;;8.87;;
6197;SDS011;3132;42.622;23.328;2022-10-16T11:33:28;10.80;;;10.03;;
6197;SDS011;3132;42.622;23.328;2022-10-16T11:36:12;9.53;;;8.93;;
6197;SDS011;3132;42.622;23.328;2022-10-16T11:38:54;9.90;;;9.30;;
6197;SDS011;3132;42.622;23.328;2022-10-16T11:46:39;10.23;;;9.37;;
6197;SDS011;3132;42.622;23.328;2022-10-16T11:49:13;10.83;;;9.93;;
6197;SDS011;3132;42.622;23.328;2022-10-16T11:51:48;10.23;;;9.33;;
6197;SDS011;3132;42.622;23.328;2022-10-16T11:54:38;10.10;;;9.50;;
6197;SDS011;3132;42.622;23.328;2022-10-16T11:57:11;9.23;;;8.63;;
6197;SDS011;3132;42.622;23.328;2022-10-16T11:59:42;9.87;;;9.30;;
6197;SDS011;3132;42.622;23.328;2022-10-16T12:08:01;9.80;;;8.83;;
6197;SDS011;3132;42.622;23.328;2022-10-16T12:10:40;9.27;;;8.87;;
6197;SDS011;3132;42.622;23.328;2022-10-16T12:13:40;8.93;;;8.53;;
6197;SDS011;3132;42.622;23.328;2022-10-16T12:18:38;9.17;;;8.57;;
6197;SDS011;3132;42.622;23.328;2022-10-16T12:21:04;9.37;;;8.60;;
6197;SDS011;3132;42.622;23.328;2022-10-16T12:23:53;9.47;;;8.83;;
6197;SDS011;3132;42.622;23.328;2022-10-16T12:26:25;8.70;;;8.30;;
6197;SDS011;3132;42.622;23.328;2022-10-16T12:28:53;8.57;;;8.10;;
6197;SDS011;3132;42.622;23.328;2022-10-16T12:31:19;9.73;;;9.23;;
6197;SDS011;3132;42.622;23.328;2022-10-16T12:36:46;9.67;;;9.07;;
6197;SDS011;3132;42.622;23.328;2022-10-16T12:39:20;9.50;;;8.90;;
6197;SDS011;3132;42.622;23.328;2022-10-16T12:41:47;9.23;;;8.63;;
6197;SDS011;3132;42.622;23.328;2022-10-16T12:44:23;9.57;;;9.07;;
6197;SDS011;3132;42.622;23.328;2022-10-16T12:46:49;9.87;;;8.90;;
6197;SDS011;3132;42.622;23.328;2022-10-16T12:49:21;9.63;;;9.07;;
6197;SDS011;3132;42.622;23.328;2022-10-16T12:51:54;9.37;;;8.80;;
6197;SDS011;3132;42.622;23.328;2022-10-16T13:21:11;9.87;;;9.37;;
6197;SDS011;3132;42.622;23.328;2022-10-16T13:29:52;9.67;;;9.17;;
6197;SDS011;3132;42.622;23.328;2022-10-16T13:32:20;10.33;;;9.60;;
6197;SDS011;3132;42.622;23.328;2022-10-16T13:34:47;10.30;;;9.60;;
6197;SDS011;3132;42.622;23.328;2022-10-16T13:37:21;10.07;;;9.57;;
6197;SDS011;3132;42.622;23.328;2022-10-16T13:39:47;9.47;;;8.97;;
6197;SDS011;3132;42.622;23.328;2022-10-16T13:42:19;9.60;;;9.00;;
6197;SDS011;3132;42.622;23.328;2022-10-16T13:44:51;10.20;;;9.60;;
6197;SDS011;3132;42.622;23.328;2022-10-16T13:47:19;8.47;;;8.07;;
6197;SDS011;3132;42.622;23.328;2022-10-16T13:49:58;9.63;;;8.93;;
6197;SDS011;3132;42.622;23.328;2022-10-16T13:52:30;9.63;;;9.13;;
6197;SDS011;3132;42.622;23.328;2022-10-16T13:54:55;9.77;;;9.23;;
6197;SDS011;3132;42.622;23.328;2022-10-16T13:57:22;11.07;;;10.07;;
6197;SDS011;3132;42.622;23.328;2022-10-16T13:59:49;9.40;;;8.90;;
6197;SDS011;3132;42.622;23.328;2022-10-16T14:04:59;9.67;;;8.97;;
6197;SDS011;3132;42.622;23.328;2022-10-16T14:07:31;9.77;;;8.90;;
6197;SDS011;3132;42.622;23.328;2022-10-16T14:10:03;9.70;;;9.20;;
6197;SDS011;3132;42.622;23.328;2022-10-16T14:12:31;9.07;;;8.47;;
6197;SDS011;3132;42.622;23.328;2022-10-16T14:14:57;9.47;;;8.90;;
6197;SDS011;3132;42.622;23.328;2022-10-16T14:17:26;9.47;;;8.97;;
6197;SDS011;3132;42.622;23.328;2022-10-16T14:19:54;9.33;;;8.83;;
6197;SDS011;3132;42.622;23.328;2022-10-16T14:22:32;10.50;;;9.80;;
6197;SDS011;3132;42.622;23.328;2022-10-16T14:24:58;9.13;;;8.73;;
6197;SDS011;3132;42.622;23.328;2022-10-16T14:27:33;9.90;;;9.20;;
6197;SDS011;3132;42.622;23.328;2022-10-16T14:30:15;9.33;;;8.73;;
6197;SDS011;3132;42.622;23.328;2022-10-16T14:32:57;10.00;;;9.40;;
6197;SDS011;3132;42.622;23.328;2022-10-16T14:37:51;11.97;;;10.90;;
6197;SDS011;3132;42.622;23.328;2022-10-16T14:40:17;14.53;;;13.23;;
6197;SDS011;3132;42.622;23.328;2022-10-16T14:42:43;15.37;;;13.80;;
6197;SDS011;3132;42.622;23.328;2022-10-16T14:45:10;12.40;;;11.53;;
6197;SDS011;3132;42.622;23.328;2022-10-16T14:47:36;10.63;;;10.03;;
6197;SDS011;3132;42.622;23.328;2022-10-16T14:50:12;11.73;;;10.90;;
6197;SDS011;3132;42.622;23.328;2022-10-16T14:52:38;11.10;;;10.23;;
6197;SDS011;3132;42.622;23.328;2022-10-16T14:55:03;11.33;;;10.60;;
6197;SDS011;3132;42.622;23.328;2022-10-16T14:57:30;11.93;;;10.90;;
6197;SDS011;3132;42.622;23.328;2022-10-16T14:59:58;12.13;;;10.97;;
6197;SDS011;3132;42.622;23.328;2022-10-16T15:02:30;11.57;;;10.77;;
6197;SDS011;3132;42.622;23.328;2022-10-16T15:04:58;10.90;;;10.27;;
6197;SDS011;3132;42.622;23.328;2022-10-16T15:07:35;12.37;;;11.23;;
6197;SDS011;3132;42.622;23.328;2022-10-16T15:10:00;12.40;;;11.30;;
6197;SDS011;3132;42.622;23.328;2022-10-16T15:12:26;22.17;;;15.60;;
6197;SDS011;3132;42.622;23.328;2022-10-16T15:14:51;14.13;;;12.80;;
6197;SDS011;3132;42.622;23.328;2022-10-16T15:17:16;11.07;;;10.37;;
6197;SDS011;3132;42.622;23.328;2022-10-16T15:19:42;10.80;;;10.10;;
6197;SDS011;3132;42.622;23.328;2022-10-16T15:22:08;11.60;;;10.43;;
6197;SDS011;3132;42.622;23.328;2022-10-16T15:24:36;10.83;;;10.10;;
6197;SDS011;3132;42.622;23.328;2022-10-16T15:27:01;11.43;;;10.53;;
6197;SDS011;3132;42.622;23.328;2022-10-16T15:29:26;11.23;;;10.43;;
6197;SDS011;3132;42.622;23.328;2022-10-16T15:31:52;21.37;;;12.77;;
6197;SDS011;3132;42.622;23.328;2022-10-16T15:34:17;22.23;;;15.87;;
6197;SDS011;3132;42.622;23.328;2022-10-16T15:36:44;30.10;;;16.73;;
6197;SDS011;3132;42.622;23.328;2022-10-16T15:39:12;11.27;;;10.23;;
6197;SDS011;3132;42.622;23.328;2022-10-16T15:41:39;13.13;;;11.93;;
6197;SDS011;3132;42.622;23.328;2022-10-16T15:44:04;12.70;;;11.53;;
6197;SDS011;3132;42.622;23.328;2022-10-16T15:46:30;14.33;;;12.93;;
6197;SDS011;3132;42.622;23.328;2022-10-16T15:48:56;14.30;;;12.53;;
6197;SDS011;3132;42.622;23.328;2022-10-16T15:51:23;12.00;;;11.20;;
6197;SDS011;3132;42.622;23.328;2022-10-16T15:53:49;12.23;;;10.97;;
6197;SDS011;3132;42.622;23.328;2022-10-16T15:56:16;12.20;;;11.13;;
6197;SDS011;3132;42.622;23.328;2022-10-16T15:58:42;11.87;;;11.07;;
6197;SDS011;3132;42.622;23.328;2022-10-16T16:01:08;12.77;;;11.73;;
6197;SDS011;3132;42.622;23.328;2022-10-16T16:03:35;12.27;;;11.30;;
6197;SDS011;3132;42.622;23.328;2022-10-16T16:06:05;11.07;;;10.38;;
6197;SDS011;3132;42.622;23.328;2022-10-16T16:08:32;11.23;;;10.47;;
6197;SDS011;3132;42.622;23.328;2022-10-16T16:10:59;10.93;;;10.33;;
6197;SDS011;3132;42.622;23.328;2022-10-16T16:13:26;11.63;;;10.53;;
6197;SDS011;3132;42.622;23.328;2022-10-16T16:15:52;11.53;;;10.70;;
6197;SDS011;3132;42.622;23.328;2022-10-16T16:18:17;11.40;;;10.53;;
6197;SDS011;3132;42.622;23.328;2022-10-16T16:20:43;10.67;;;9.67;;
6197;SDS011;3132;42.622;23.328;2022-10-16T16:23:08;11.30;;;10.60;;
6197;SDS011;3132;42.622;23.328;2022-10-16T16:25:33;13.50;;;12.17;;
6197;SDS011;3132;42.622;23.328;2022-10-16T16:27:59;10.57;;;9.87;;
6197;SDS011;3132;42.622;23.328;2022-10-16T16:30:24;10.30;;;9.50;;
6197;SDS011;3132;42.622;23.328;2022-10-16T16:32:49;10.27;;;9.67;;
6197;SDS011;3132;42.622;23.328;2022-10-16T16:35:15;10.63;;;9.93;;
6197;SDS011;3132;42.622;23.328;2022-10-16T16:37:40;11.23;;;10.60;;
6197;SDS011;3132;42.622;23.328;2022-10-16T16:40:06;11.43;;;10.73;;
6197;SDS011;3132;42.622;23.328;2022-10-16T16:42:31;11.53;;;10.83;;
6197;SDS011;3132;42.622;23.328;2022-10-16T16:44:56;11.70;;;10.90;;
6197;SDS011;3132;42.622;23.328;2022-10-16T16:47:22;11.23;;;10.37;;
6197;SDS011;3132;42.622;23.328;2022-10-16T16:49:47;12.57;;;11.67;;